createdAt,value
2019-02-10T00:02:03.780Z,96093.48
2019-02-10T00:04:32.881Z,96089.64
2019-02-10T00:07:01.989Z,96088.20
2019-02-10T00:09:31.057Z,96075.63
2019-02-10T00:12:00.163Z,96079.55
2019-02-10T00:14:29.238Z,96068.98
2019-02-10T00:16:58.343Z,96068.58
2019-02-10T00:19:27.419Z,96057.41
2019-02-10T00:21:56.519Z,96037.75
2019-02-10T00:24:25.627Z,96017.34
2019-02-10T00:26:54.722Z,96018.72
2019-02-10T00:29:23.813Z,96023.34
2019-02-10T00:31:52.905Z,96024.16
2019-02-10T00:34:21.985Z,96024.22
2019-02-10T00:36:51.081Z,96017.86
2019-02-10T00:39:20.153Z,96024.00
2019-02-10T00:41:49.224Z,96020.58
2019-02-10T00:44:18.335Z,96006.64
2019-02-10T00:46:47.409Z,96000.03
2019-02-10T00:49:16.506Z,95998.58
2019-02-10T00:51:45.587Z,95995.46
2019-02-10T00:54:14.680Z,95987.20
2019-02-10T00:56:43.753Z,95983.20
2019-02-10T00:59:12.859Z,95977.59
2019-02-10T01:01:41.938Z,95971.17
2019-02-10T01:04:11.072Z,95970.89
2019-02-10T01:06:41.722Z,95962.72
2019-02-10T01:09:10.910Z,95962.96
2019-02-10T01:11:39.992Z,95948.55
2019-02-10T01:14:09.102Z,95936.30
2019-02-10T01:16:38.194Z,95924.09
2019-02-10T01:19:13.216Z,95917.67
2019-02-10T01:21:46.529Z,95916.06
2019-02-10T01:24:15.632Z,95903.51
2019-02-10T01:26:44.714Z,95905.70
2019-02-10T01:29:13.865Z,95891.97
2019-02-10T01:31:42.982Z,95889.02
2019-02-10T01:34:12.053Z,95877.52
2019-02-10T01:36:49.166Z,95870.30
2019-02-10T01:39:19.776Z,95868.40
2019-02-10T01:41:48.882Z,95861.30
2019-02-10T01:44:18.243Z,95859.06
2019-02-10T01:46:47.351Z,95856.10
2019-02-10T01:49:16.432Z,95851.02
2019-02-10T01:51:45.541Z,95849.17
2019-02-10T01:54:14.627Z,95836.92
2019-02-10T01:56:43.734Z,95831.27
2019-02-10T01:59:12.809Z,95828.07
2019-02-10T02:01:41.920Z,95826.80
2019-02-10T02:04:11.037Z,95819.11
2019-02-10T02:06:40.148Z,95810.09
2019-02-10T02:09:12.282Z,95806.96
2019-02-10T02:11:41.483Z,95790.49
2019-02-10T02:14:10.558Z,95779.58
2019-02-10T02:16:39.667Z,95765.52
2019-02-10T02:19:08.750Z,95769.27
2019-02-10T02:21:37.845Z,95760.23
2019-02-10T02:24:06.931Z,95761.33
2019-02-10T02:26:36.025Z,95753.63
2019-02-10T02:29:05.118Z,95751.41
2019-02-10T02:31:34.218Z,95748.83
2019-02-10T02:34:03.308Z,95731.75
2019-02-10T02:36:34.054Z,95733.97
2019-02-10T02:39:04.307Z,95731.06
2019-02-10T02:41:33.413Z,95736.73
2019-02-10T02:44:02.498Z,95728.56
2019-02-10T02:46:31.602Z,95728.48
2019-02-10T02:49:00.679Z,95721.25
2019-02-10T02:51:29.807Z,95715.89
2019-02-10T02:53:58.864Z,95702.27
2019-02-10T02:56:27.936Z,95680.48
2019-02-10T02:58:57.036Z,95682.77
2019-02-10T03:01:26.132Z,95664.31
2019-02-10T03:03:55.247Z,95668.09
2019-02-10T03:06:25.961Z,95662.22
2019-02-10T03:08:55.067Z,95663.78
2019-02-10T03:11:24.142Z,95644.89
2019-02-10T03:13:53.243Z,95649.06
2019-02-10T03:16:22.331Z,95625.16
2019-02-10T03:18:53.222Z,95629.14
2019-02-10T03:21:22.254Z,95624.11
2019-02-10T03:23:51.345Z,95628.14
2019-02-10T03:26:20.421Z,95613.52
2019-02-10T03:28:49.513Z,95609.22
2019-02-10T03:31:18.586Z,95591.19
2019-02-10T03:33:47.707Z,95587.67
2019-02-10T03:36:16.781Z,95577.05
2019-02-10T03:38:45.894Z,95590.09
2019-02-10T03:41:14.974Z,95576.37
2019-02-10T03:43:44.084Z,95582.21
2019-02-10T03:46:13.165Z,95564.66
2019-02-10T03:48:42.269Z,95563.92
2019-02-10T03:51:11.357Z,95566.98
2019-02-10T03:53:40.455Z,95561.06
2019-02-10T03:56:09.540Z,95558.65
2019-02-10T03:58:38.638Z,95529.97
2019-02-10T04:01:07.731Z,95497.58
2019-02-10T04:03:36.861Z,95504.78
2019-02-10T04:06:05.941Z,95486.67
2019-02-10T04:08:35.045Z,95489.33
2019-02-10T04:11:04.127Z,95476.56
2019-02-10T04:13:33.236Z,95472.02
2019-02-10T04:16:02.322Z,95469.09
2019-02-10T04:18:31.423Z,95467.78
2019-02-10T04:21:00.503Z,95459.81
2019-02-10T04:23:29.611Z,95444.92
2019-02-10T04:25:58.703Z,95440.95
2019-02-10T04:28:27.806Z,95421.32
2019-02-10T04:30:56.882Z,95412.52
2019-02-10T04:33:25.983Z,95418.98
2019-02-10T04:35:55.066Z,95412.36
2019-02-10T04:38:24.180Z,95393.48
2019-02-10T04:40:53.340Z,95393.97
2019-02-10T04:43:22.415Z,95379.66
2019-02-10T04:45:51.520Z,95379.67
2019-02-10T04:48:20.596Z,95362.37
2019-02-10T04:50:49.694Z,95361.08
2019-02-10T04:53:18.795Z,95367.98
2019-02-10T04:56:11.507Z,95349.89
2019-02-10T04:58:40.591Z,95368.52
2019-02-10T05:01:09.702Z,95354.96
2019-02-10T05:03:39.293Z,95337.13
2019-02-10T05:06:08.393Z,95334.76
2019-02-10T05:08:37.472Z,95329.43
2019-02-10T05:11:06.571Z,95314.27
2019-02-10T05:13:35.662Z,95320.94
2019-02-10T05:16:04.783Z,95304.69
2019-02-10T05:18:33.838Z,95307.35
2019-02-10T05:21:02.943Z,95286.09
2019-02-10T05:23:32.036Z,95277.84
2019-02-10T05:26:01.158Z,95279.17
2019-02-10T05:28:30.201Z,95273.57
2019-02-10T05:30:59.307Z,95269.07
2019-02-10T05:33:28.384Z,95273.31
2019-02-10T05:35:57.509Z,95243.78
2019-02-10T05:38:26.592Z,95222.48
2019-02-10T05:40:55.699Z,95221.94
2019-02-10T05:43:24.774Z,95224.88
2019-02-10T05:45:53.872Z,95207.83
2019-02-10T05:48:22.947Z,95203.55
2019-02-10T05:50:52.056Z,95199.28
2019-02-10T05:53:21.143Z,95194.48
2019-02-10T05:55:50.249Z,95177.67
2019-02-10T05:58:19.321Z,95195.53
2019-02-10T06:00:48.447Z,95163.55
2019-02-10T06:03:17.560Z,95159.83
2019-02-10T06:05:46.670Z,95162.22
2019-02-10T06:08:15.749Z,95150.48
2019-02-10T06:10:44.855Z,95164.36
2019-02-10T06:13:13.929Z,95148.66
2019-02-10T06:15:43.035Z,95146.83
2019-02-10T06:18:12.110Z,95122.27
2019-02-10T06:20:41.219Z,95128.38
2019-02-10T06:23:10.298Z,95114.50
2019-02-10T06:25:39.419Z,95097.42
2019-02-10T06:28:08.487Z,95103.55
2019-02-10T06:30:37.582Z,95082.77
2019-02-10T06:33:06.667Z,95088.62
2019-02-10T06:35:35.751Z,95072.38
2019-02-10T06:38:04.855Z,95083.54
2019-02-10T06:40:33.959Z,95078.97
2019-02-10T06:43:03.038Z,95054.80
2019-02-10T06:45:32.130Z,95063.59
2019-02-10T06:48:01.237Z,95031.59
2019-02-10T06:50:30.320Z,95023.82
2019-02-10T06:52:59.418Z,95031.24
2019-02-10T06:55:28.502Z,95011.00
2019-02-10T06:57:57.613Z,95031.51
2019-02-10T07:00:37.693Z,95013.16
2019-02-10T07:03:39.099Z,95019.13
2019-02-10T07:06:08.578Z,95013.31
2019-02-10T07:08:37.693Z,94993.89
2019-02-10T07:11:06.770Z,95004.52
2019-02-10T07:13:40.875Z,94991.50
2019-02-10T07:16:54.164Z,95005.28
2019-02-10T07:20:12.302Z,94995.41
2019-02-10T07:23:25.349Z,94980.22
2019-02-10T07:25:56.217Z,94968.27
2019-02-10T07:29:01.485Z,94963.56
2019-02-10T07:31:33.858Z,94960.63
2019-02-10T07:34:59.064Z,94965.11
2019-02-10T07:37:45.707Z,94941.92
2019-02-10T07:40:49.394Z,94938.51
2019-02-10T07:44:02.367Z,94931.33
2019-02-10T07:47:21.254Z,94926.22
2019-02-10T07:50:17.703Z,94911.77
2019-02-10T07:53:26.288Z,94899.41
2019-02-10T07:56:26.262Z,94886.60
2019-02-10T07:59:20.502Z,94884.38
2019-02-10T08:02:42.619Z,94864.31
2019-02-10T08:05:30.760Z,94864.00
2019-02-10T08:08:37.157Z,94838.59
2019-02-10T08:11:48.624Z,94849.18
2019-02-10T08:14:48.458Z,94821.32
2019-02-10T08:17:49.737Z,94829.60
2019-02-10T08:20:49.898Z,94867.19
2019-02-10T08:23:47.206Z,94828.13
2019-02-10T08:27:27.223Z,94818.23
2019-02-10T08:30:18.566Z,94807.83
2019-02-10T08:33:12.513Z,94789.45
2019-02-10T08:36:15.665Z,94799.82
2019-02-10T08:39:18.096Z,94790.71
2019-02-10T08:42:37.252Z,94783.97
2019-02-10T08:45:25.584Z,94785.08
2019-02-10T08:48:36.999Z,94769.86
2019-02-10T08:51:42.686Z,94769.78
2019-02-10T08:54:12.393Z,94767.12
2019-02-10T08:56:41.475Z,94732.63
2019-02-10T08:59:10.574Z,94756.98
2019-02-10T09:01:39.673Z,94744.98
2019-02-10T09:04:08.800Z,94734.30
2019-02-10T09:06:37.879Z,94755.85
2019-02-10T09:09:08.616Z,94747.67
2019-02-10T09:11:37.768Z,94743.95
2019-02-10T09:14:06.893Z,94745.59
2019-02-10T09:16:35.972Z,94732.66
2019-02-10T09:19:05.132Z,94725.26
2019-02-10T09:21:34.211Z,94743.43
2019-02-10T09:24:03.319Z,94761.98
2019-02-10T09:26:32.401Z,94741.64
2019-02-10T09:29:01.537Z,94735.22
2019-02-10T09:31:30.623Z,94730.54
2019-02-10T09:33:59.716Z,94723.04
2019-02-10T09:36:28.802Z,94735.73
2019-02-10T09:38:57.901Z,94721.14
2019-02-10T09:41:26.984Z,94728.81
2019-02-10T09:43:56.098Z,94714.70
2019-02-10T09:46:25.310Z,94708.88
2019-02-10T09:48:54.453Z,94708.88
2019-02-10T09:51:23.541Z,94702.23
2019-02-10T09:53:52.636Z,94698.86
2019-02-10T09:56:40.825Z,94701.95
2019-02-10T09:59:09.904Z,94738.32
2019-02-10T10:01:39.004Z,94692.95
2019-02-10T10:04:08.111Z,94696.27
2019-02-10T10:06:37.208Z,94696.36
2019-02-10T10:09:07.135Z,94688.41
2019-02-10T10:11:36.236Z,94692.18
2019-02-10T10:14:05.326Z,94686.77
2019-02-10T10:16:34.428Z,94668.59
2019-02-10T10:19:03.523Z,94670.19
2019-02-10T10:21:32.639Z,94670.75
2019-02-10T10:24:01.743Z,94656.33
2019-02-10T10:26:30.851Z,94674.27
2019-02-10T10:28:59.937Z,94660.50
2019-02-10T10:31:29.221Z,94669.67
2019-02-10T10:33:58.460Z,94642.80
2019-02-10T10:36:27.551Z,94654.57
2019-02-10T10:38:56.653Z,94645.75
2019-02-10T10:41:25.799Z,94642.25
2019-02-10T10:43:54.910Z,94648.07
2019-02-10T10:46:24.064Z,94638.25
2019-02-10T10:48:53.150Z,94636.58
2019-02-10T10:51:22.285Z,94629.56
2019-02-10T10:53:51.386Z,94612.72
2019-02-10T10:56:20.511Z,94600.81
2019-02-10T10:58:49.637Z,94619.48
2019-02-10T11:01:25.201Z,94619.96
2019-02-10T11:03:49.588Z,94597.70
2019-02-10T11:06:18.703Z,94600.02
2019-02-10T11:08:47.816Z,94595.47
2019-02-10T11:11:16.956Z,94602.71
2019-02-10T11:13:46.043Z,94588.35
2019-02-10T11:16:15.175Z,94604.64
2019-02-10T11:18:44.259Z,94595.56
2019-02-10T11:21:13.734Z,94589.37
2019-02-10T11:23:42.852Z,94593.34
2019-02-10T11:26:12.002Z,94586.13
2019-02-10T11:28:41.273Z,94589.63
2019-02-10T11:31:10.360Z,94566.28
2019-02-10T11:33:39.472Z,94568.79
2019-02-10T11:36:08.634Z,94570.03
2019-02-10T11:38:37.742Z,94556.37
2019-02-10T11:41:06.833Z,94584.86
2019-02-10T11:43:35.943Z,94567.36
2019-02-10T11:46:05.037Z,94551.50
2019-02-10T11:48:34.146Z,94532.57
2019-02-10T11:51:03.238Z,94530.88
2019-02-10T11:53:32.333Z,94530.05
2019-02-10T11:56:01.404Z,94536.13
2019-02-10T11:58:30.511Z,94525.89
2019-02-10T12:00:59.816Z,94519.65
2019-02-10T12:03:28.941Z,94539.34
2019-02-10T12:05:58.212Z,94531.60
2019-02-10T12:08:35.386Z,94530.44
2019-02-10T12:10:58.145Z,94539.57
2019-02-10T12:13:27.359Z,94543.09
2019-02-10T12:15:56.809Z,94556.55
2019-02-10T12:18:25.948Z,94554.02
2019-02-10T12:20:55.087Z,94537.30
2019-02-10T12:23:24.377Z,94533.69
2019-02-10T12:25:53.478Z,94536.61
2019-02-10T12:28:22.605Z,94525.20
2019-02-10T12:30:51.758Z,94521.05
2019-02-10T12:33:20.925Z,94519.33
2019-02-10T12:35:57.986Z,94514.34
2019-02-10T12:38:20.960Z,94517.89
2019-02-10T12:40:50.055Z,94520.46
2019-02-10T12:43:19.181Z,94510.95
2019-02-10T12:45:48.286Z,94517.73
2019-02-10T12:48:17.422Z,94515.75
2019-02-10T12:50:46.520Z,94520.95
2019-02-10T12:53:15.649Z,94506.12
2019-02-10T12:55:44.819Z,94508.25
2019-02-10T12:58:13.924Z,94505.01
2019-02-10T13:00:43.008Z,94517.17
2019-02-10T13:03:12.118Z,94503.23
2019-02-10T13:05:41.267Z,94514.86
2019-02-10T13:08:10.376Z,94509.48
2019-02-10T13:10:39.463Z,94515.32
2019-02-10T13:13:08.545Z,94513.67
2019-02-10T13:15:37.664Z,94525.74
2019-02-10T13:18:06.771Z,94519.27
2019-02-10T13:20:35.932Z,94540.30
2019-02-10T13:23:05.014Z,94541.88
2019-02-10T13:25:34.113Z,94549.87
2019-02-10T13:28:03.234Z,94531.77
2019-02-10T13:30:33.800Z,94542.70
2019-02-10T13:33:02.990Z,94552.20
2019-02-10T13:35:32.124Z,94551.58
2019-02-10T13:38:01.219Z,94562.50
2019-02-10T13:40:30.340Z,94551.66
2019-02-10T13:42:59.436Z,94556.00
2019-02-10T13:45:28.516Z,94568.02
2019-02-10T13:47:57.620Z,94588.42
2019-02-10T13:50:26.759Z,94573.87
2019-02-10T13:52:55.866Z,94587.34
2019-02-10T13:55:25.004Z,94561.44
2019-02-10T13:57:54.105Z,94569.17
2019-02-10T14:00:23.247Z,94566.39
2019-02-10T14:02:52.354Z,94572.20
2019-02-10T14:05:21.504Z,94569.36
2019-02-10T14:07:51.192Z,94571.56
2019-02-10T14:10:25.712Z,94567.52
2019-02-10T14:12:51.237Z,94592.23
2019-02-10T14:15:20.448Z,94565.29
2019-02-10T14:17:49.553Z,94583.97
2019-02-10T14:20:18.709Z,94573.80
2019-02-10T14:22:47.814Z,94589.12
2019-02-10T14:25:17.369Z,94588.45
2019-02-10T14:27:46.519Z,94585.14
2019-02-10T14:30:17.048Z,94579.89
2019-02-10T14:32:46.308Z,94567.48
2019-02-10T14:35:15.444Z,94602.75
2019-02-10T14:37:44.526Z,94577.26
2019-02-10T14:40:13.629Z,94577.53
2019-02-10T14:42:42.712Z,94580.97
2019-02-10T14:45:12.976Z,94601.55
2019-02-10T14:47:42.058Z,94584.75
2019-02-10T14:50:12.670Z,94571.30
2019-02-10T14:52:41.762Z,94586.25
2019-02-10T14:55:10.871Z,94585.31
2019-02-10T14:57:39.956Z,94600.31
2019-02-10T15:00:11.218Z,94581.63
2019-02-10T15:02:40.310Z,94591.30
2019-02-10T15:05:09.460Z,94589.80
2019-02-10T15:07:38.547Z,94597.03
2019-02-10T15:10:11.844Z,94594.19
2019-02-10T15:12:40.793Z,94585.64
2019-02-10T15:15:11.390Z,94590.86
2019-02-10T15:17:40.517Z,94586.92
2019-02-10T15:20:09.744Z,94588.26
2019-02-10T15:22:38.825Z,94591.15
2019-02-10T15:25:08.506Z,94606.89
2019-02-10T15:27:37.715Z,94600.65
2019-02-10T15:30:07.867Z,94603.60
2019-02-10T15:32:36.969Z,94598.33
2019-02-10T15:35:06.257Z,94607.95
2019-02-10T15:37:35.369Z,94600.47
2019-02-10T15:40:04.784Z,94611.70
2019-02-10T15:42:33.891Z,94617.06
2019-02-10T15:45:02.970Z,94613.34
2019-02-10T15:47:32.069Z,94617.82
2019-02-10T15:50:01.157Z,94621.06
2019-02-10T15:52:30.258Z,94621.13
2019-02-10T15:54:59.344Z,94612.55
2019-02-10T15:57:28.477Z,94620.47
2019-02-10T15:59:57.599Z,94613.60
2019-02-10T16:02:26.719Z,94615.95
2019-02-10T16:04:55.828Z,94622.24
2019-02-10T16:07:24.939Z,94630.22
2019-02-10T16:09:54.034Z,94641.56
2019-02-10T16:12:23.140Z,94637.08
2019-02-10T16:14:52.217Z,94650.17
2019-02-10T16:17:21.364Z,94642.20
2019-02-10T16:19:50.741Z,94670.39
2019-02-10T16:22:21.487Z,94662.95
2019-02-10T16:24:50.572Z,94667.52
2019-02-10T16:27:19.673Z,94675.07
2019-02-10T16:29:48.879Z,94679.68
2019-02-10T16:32:17.974Z,94679.77
2019-02-10T16:34:47.044Z,94676.58
2019-02-10T16:37:16.144Z,94676.36
2019-02-10T16:39:45.241Z,94677.42
2019-02-10T16:42:14.346Z,94675.87
2019-02-10T16:44:43.438Z,94690.00
2019-02-10T16:47:12.546Z,94696.68
2019-02-10T16:49:41.660Z,94705.86
2019-02-10T16:52:10.782Z,94727.70
2019-02-10T16:54:39.885Z,94738.36
2019-02-10T16:57:08.994Z,94745.02
2019-02-10T16:59:38.108Z,94767.65
2019-02-10T17:02:07.221Z,94758.34
2019-02-10T17:04:36.607Z,94766.08
2019-02-10T17:07:05.715Z,94760.76
2019-02-10T17:09:34.920Z,94767.95
2019-02-10T17:12:04.041Z,94771.67
2019-02-10T17:14:33.214Z,94787.09
2019-02-10T17:17:02.316Z,94792.14
2019-02-10T17:19:31.410Z,94792.95
2019-02-10T17:22:00.620Z,94816.28
2019-02-10T17:24:29.779Z,94817.09
2019-02-10T17:26:58.865Z,94824.28
2019-02-10T17:29:28.778Z,94813.92
2019-02-10T17:31:57.887Z,94818.98
2019-02-10T17:34:26.974Z,94817.94
2019-02-10T17:36:56.082Z,94823.51
2019-02-10T17:39:25.491Z,94836.24
2019-02-10T17:41:54.622Z,94834.68
2019-02-10T17:44:23.755Z,94837.86
2019-02-10T17:46:52.867Z,94846.61
2019-02-10T17:49:21.964Z,94842.91
2019-02-10T17:51:51.075Z,94848.48
2019-02-10T17:54:20.192Z,94857.51
2019-02-10T17:56:49.288Z,94868.38
2019-02-10T17:59:18.410Z,94869.43
2019-02-10T18:01:47.649Z,94873.68
2019-02-10T18:04:16.783Z,94867.03
2019-02-10T18:06:45.871Z,94876.08
2019-02-10T18:09:14.983Z,94880.31
2019-02-10T18:11:44.050Z,94884.55
2019-02-10T18:14:36.356Z,94899.16
2019-02-10T18:17:22.822Z,94907.11
2019-02-10T18:20:01.324Z,94891.97
2019-02-10T18:22:52.538Z,94904.73
2019-02-10T18:25:34.237Z,94904.46
2019-02-10T18:28:20.800Z,94902.08
2019-02-10T18:31:06.918Z,94906.31
2019-02-10T18:33:50.605Z,94903.39
2019-02-10T18:36:38.689Z,94907.65
2019-02-10T18:39:25.106Z,94910.30
2019-02-10T18:42:20.916Z,94916.66
2019-02-10T18:44:53.253Z,94916.14
2019-02-10T18:47:34.938Z,94930.20
2019-02-10T18:50:13.828Z,94929.68
2019-02-10T18:53:02.055Z,94938.45
2019-02-10T18:55:53.232Z,94944.28
2019-02-10T18:58:39.654Z,94948.25
2019-02-10T19:01:26.420Z,94948.52
2019-02-10T19:04:01.221Z,94976.67
2019-02-10T19:06:52.356Z,94966.05
2019-02-10T19:09:41.182Z,94969.77
2019-02-10T19:12:32.267Z,94977.73
2019-02-10T19:15:27.604Z,94984.64
2019-02-10T19:18:12.249Z,94994.98
2019-02-10T19:20:55.868Z,95001.90
2019-02-10T19:23:39.418Z,95008.54
2019-02-10T19:26:30.624Z,95004.02
2019-02-10T19:29:17.367Z,95014.08
2019-02-10T19:31:53.589Z,95015.16
2019-02-10T19:34:40.147Z,95034.27
2019-02-10T19:37:37.084Z,95036.64
2019-02-10T19:40:23.953Z,95046.73
2019-02-10T19:43:08.404Z,95064.78
2019-02-10T19:45:49.096Z,95075.94
2019-02-10T19:48:31.593Z,95075.93
2019-02-10T19:51:19.679Z,95110.42
2019-02-10T19:53:58.288Z,95099.79
2019-02-10T19:56:55.610Z,95106.92
2019-02-10T19:59:46.898Z,95109.56
2019-02-10T20:02:33.748Z,95112.97
2019-02-10T20:05:19.084Z,95108.20
2019-02-10T20:08:00.343Z,95114.53
2019-02-10T20:11:00.661Z,95112.69
2019-02-10T20:13:44.872Z,95111.61
2019-02-10T20:16:32.970Z,95107.93
2019-02-10T20:19:16.584Z,95102.90
2019-02-10T20:21:58.915Z,95111.91
2019-02-10T20:24:54.178Z,95131.28
2019-02-10T20:27:48.301Z,95122.23
2019-02-10T20:30:34.147Z,95135.50
2019-02-10T20:33:20.476Z,95143.44
2019-02-10T20:35:56.713Z,95144.77
2019-02-10T20:38:43.228Z,95143.46
2019-02-10T20:41:27.866Z,95139.26
2019-02-10T20:44:14.398Z,95157.83
2019-02-10T20:46:50.472Z,95186.49
2019-02-10T20:49:30.718Z,95192.08
2019-02-10T20:52:30.771Z,95184.89
2019-02-10T20:55:18.883Z,95195.28
2019-02-10T20:58:04.336Z,95235.55
2019-02-10T21:00:51.116Z,95220.19
2019-02-10T21:03:42.258Z,95227.56
2019-02-10T21:06:48.595Z,95226.75
2019-02-10T21:09:24.132Z,95233.91
2019-02-10T21:12:21.323Z,95262.56
2019-02-10T21:15:21.356Z,95264.66
2019-02-10T21:18:03.450Z,95268.09
2019-02-10T21:20:43.270Z,95271.75
2019-02-10T21:23:22.695Z,95284.97
2019-02-10T21:26:09.414Z,95292.97
2019-02-10T21:28:54.645Z,95298.52
2019-02-10T21:31:40.962Z,95300.40
2019-02-10T21:34:35.184Z,95309.41
2019-02-10T21:37:29.144Z,95316.03
2019-02-10T21:40:08.517Z,95303.25
2019-02-10T21:42:56.632Z,95316.19
2019-02-10T21:45:31.456Z,95324.14
2019-02-10T21:48:05.643Z,95323.95
2019-02-10T21:50:34.794Z,95326.00
2019-02-10T21:53:03.960Z,95315.86
2019-02-10T21:55:33.102Z,95330.92
2019-02-10T21:58:03.258Z,95349.20
2019-02-10T22:00:32.412Z,95344.42
2019-02-10T22:03:01.571Z,95354.48
2019-02-10T22:05:30.725Z,95352.56
2019-02-10T22:07:59.839Z,95359.98
2019-02-10T22:10:28.932Z,95388.34
2019-02-10T22:12:58.094Z,95378.30
2019-02-10T22:15:27.176Z,95376.63
2019-02-10T22:17:56.301Z,95389.09
2019-02-10T22:20:25.398Z,95398.66
2019-02-10T22:22:54.520Z,95401.53
2019-02-10T22:25:23.715Z,95421.37
2019-02-10T22:27:52.815Z,95412.42
2019-02-10T22:30:21.921Z,95426.27
2019-02-10T22:32:51.019Z,95422.44
2019-02-10T22:35:20.098Z,95418.08
2019-02-10T22:37:49.198Z,95433.44
2019-02-10T22:40:18.277Z,95452.75
2019-02-10T22:42:47.354Z,95451.73
2019-02-10T22:45:16.453Z,95450.67
2019-02-10T22:47:45.795Z,95463.06
2019-02-10T22:50:14.906Z,95475.49
2019-02-10T22:52:43.988Z,95469.34
2019-02-10T22:55:13.100Z,95494.05
2019-02-10T22:57:42.150Z,95485.59
2019-02-10T23:01:01.479Z,95483.67
2019-02-10T23:03:30.588Z,95495.30
2019-02-10T23:05:59.695Z,95505.84
2019-02-10T23:08:28.790Z,95515.64
2019-02-10T23:10:58.094Z,95506.65
2019-02-10T23:13:27.178Z,95519.14
2019-02-10T23:15:56.278Z,95514.31
2019-02-10T23:18:25.348Z,95526.81
2019-02-10T23:20:54.452Z,95522.26
2019-02-10T23:23:23.531Z,95530.99
2019-02-10T23:25:52.629Z,95537.28
2019-02-10T23:28:21.706Z,95556.61
2019-02-10T23:30:50.807Z,95557.95
2019-02-10T23:33:19.892Z,95565.91
2019-02-10T23:35:48.992Z,95565.07
2019-02-10T23:38:18.073Z,95582.84
2019-02-10T23:40:47.177Z,95585.23
2019-02-10T23:43:16.254Z,95603.48
2019-02-10T23:45:45.353Z,95602.45
2019-02-10T23:48:14.427Z,95621.69
2019-02-10T23:50:43.522Z,95626.00
2019-02-10T23:53:12.597Z,95629.69
2019-02-10T23:55:41.695Z,95641.81
2019-02-10T23:58:10.773Z,95656.58
